createdAt,value
2019-02-08T00:00:24.738Z,1.80
2019-02-08T00:03:27.007Z,1.80
2019-02-08T00:06:29.302Z,1.80
2019-02-08T00:09:31.567Z,1.80
2019-02-08T00:12:33.858Z,1.80
2019-02-08T00:15:36.787Z,1.80
2019-02-08T00:18:39.399Z,1.80
2019-02-08T00:21:42.267Z,1.80
2019-02-08T00:24:44.802Z,1.80
2019-02-08T00:27:48.056Z,1.80
2019-02-08T00:30:51.456Z,1.80
2019-02-08T00:33:53.777Z,1.80
2019-02-08T00:36:56.568Z,1.80
2019-02-08T00:39:59.611Z,1.70
2019-02-08T00:43:02.266Z,1.70
2019-02-08T00:46:04.761Z,1.80
2019-02-08T00:50:31.894Z,1.80
2019-02-08T00:53:34.823Z,1.80
2019-02-08T00:56:37.107Z,1.70
2019-02-08T00:59:40.213Z,1.70
2019-02-08T01:02:42.954Z,1.70
2019-02-08T01:05:46.217Z,1.70
2019-02-08T01:08:49.596Z,1.70
2019-02-08T01:11:51.891Z,1.70
2019-02-08T01:14:54.157Z,1.70
2019-02-08T01:17:56.494Z,1.70
2019-02-08T01:20:58.820Z,1.70
2019-02-08T01:24:01.075Z,1.70
2019-02-08T01:27:03.367Z,1.70
2019-02-08T01:30:08.629Z,1.70
2019-02-08T01:33:11.026Z,1.70
2019-02-08T01:36:13.494Z,1.70
2019-02-08T01:39:15.746Z,1.70
2019-02-08T01:42:18.011Z,1.70
2019-02-08T01:45:21.763Z,1.70
2019-02-08T01:48:24.046Z,1.70
2019-02-08T01:51:26.323Z,1.70
2019-02-08T01:54:28.610Z,1.70
2019-02-08T01:57:30.930Z,1.70
2019-02-08T02:00:35.335Z,1.70
2019-02-08T02:03:37.593Z,1.70
2019-02-08T02:06:39.878Z,1.70
2019-02-08T02:09:42.131Z,1.70
2019-02-08T02:12:44.373Z,1.70
2019-02-08T02:15:46.649Z,1.70
2019-02-08T02:18:48.907Z,1.70
2019-02-08T02:21:51.149Z,1.60
2019-02-08T02:24:53.444Z,1.60
2019-02-08T02:27:55.723Z,1.60
2019-02-08T02:30:58.002Z,1.60
2019-02-08T02:34:00.271Z,1.60
2019-02-08T02:37:02.573Z,1.60
2019-02-08T02:40:06.695Z,1.60
2019-02-08T02:43:08.971Z,1.50
2019-02-08T02:46:11.310Z,1.60
2019-02-08T02:49:13.601Z,1.60
2019-02-08T02:52:15.915Z,1.60
2019-02-08T02:55:18.319Z,1.60
2019-02-08T02:58:20.599Z,1.60
2019-02-08T03:01:22.842Z,1.60
2019-02-08T03:04:25.147Z,1.50
2019-02-08T03:07:27.409Z,1.50
2019-02-08T03:10:29.679Z,1.50
2019-02-08T03:13:31.975Z,1.50
2019-02-08T03:16:34.272Z,1.50
2019-02-08T03:19:36.560Z,1.50
2019-02-08T03:22:38.787Z,1.50
2019-02-08T03:25:41.106Z,1.50
2019-02-08T03:28:43.384Z,1.50
2019-02-08T03:31:45.677Z,1.50
2019-02-08T03:34:47.963Z,1.50
2019-02-08T03:37:50.246Z,1.50
2019-02-08T03:40:52.491Z,1.50
2019-02-08T03:43:54.727Z,1.50
2019-02-08T03:46:56.968Z,1.50
2019-02-08T03:49:59.219Z,1.50
2019-02-08T03:53:01.493Z,1.60
2019-02-08T03:56:03.804Z,1.60
2019-02-08T03:59:06.092Z,1.60
2019-02-08T04:02:08.395Z,1.60
2019-02-08T04:05:10.712Z,1.60
2019-02-08T04:08:12.995Z,1.50
2019-02-08T04:11:15.242Z,1.50
2019-02-08T04:14:17.503Z,1.50
2019-02-08T04:17:19.774Z,1.50
2019-02-08T04:20:25.031Z,1.50
2019-02-08T04:23:27.323Z,1.50
2019-02-08T04:26:29.595Z,1.50
2019-02-08T04:29:31.831Z,1.50
2019-02-08T04:32:34.123Z,1.50
2019-02-08T04:35:36.354Z,1.50
2019-02-08T04:38:38.618Z,1.60
2019-02-08T04:41:40.867Z,1.60
2019-02-08T04:44:43.102Z,1.60
2019-02-08T04:47:45.441Z,1.60
2019-02-08T04:50:47.687Z,1.60
2019-02-08T04:53:50.003Z,1.60
2019-02-08T04:56:52.245Z,1.60
2019-02-08T04:59:54.479Z,1.60
2019-02-08T05:02:56.781Z,1.60
2019-02-08T05:05:59.052Z,1.60
2019-02-08T05:09:01.340Z,1.60
2019-02-08T05:12:03.685Z,1.60
2019-02-08T05:15:06.433Z,1.70
2019-02-08T05:18:08.687Z,1.70
2019-02-08T05:21:10.907Z,1.70
2019-02-08T05:24:13.208Z,1.70
2019-02-08T05:27:15.540Z,1.70
2019-02-08T05:30:20.440Z,1.70
2019-02-08T05:33:22.670Z,1.60
2019-02-08T05:36:24.949Z,1.60
2019-02-08T05:39:27.225Z,1.60
2019-02-08T05:42:29.469Z,1.50
2019-02-08T05:45:31.706Z,1.50
2019-02-08T05:48:33.979Z,1.50
2019-02-08T05:51:36.206Z,1.50
2019-02-08T05:54:38.462Z,1.50
2019-02-08T05:57:40.747Z,1.50
2019-02-08T06:00:48.525Z,1.40
2019-02-08T06:03:50.743Z,1.40
2019-02-08T06:06:59.713Z,1.40
2019-02-08T06:10:01.974Z,1.30
2019-02-08T06:13:04.985Z,1.30
2019-02-08T06:16:07.247Z,1.30
2019-02-08T06:19:09.512Z,1.30
2019-02-08T06:22:11.775Z,1.30
2019-02-08T06:25:14.178Z,1.30
2019-02-08T06:28:16.443Z,1.30
2019-02-08T06:31:18.699Z,1.30
2019-02-08T06:34:20.995Z,1.30
2019-02-08T06:37:23.345Z,1.30
2019-02-08T06:40:25.693Z,1.30
2019-02-08T06:43:27.955Z,1.30
2019-02-08T06:46:30.249Z,1.30
2019-02-08T06:49:32.514Z,1.30
2019-02-08T06:52:34.740Z,1.30
2019-02-08T06:55:37.023Z,1.30
2019-02-08T06:58:43.891Z,1.30
2019-02-08T07:01:53.684Z,1.20
2019-02-08T07:05:08.459Z,1.20
2019-02-08T07:08:16.431Z,1.20
2019-02-08T07:11:27.091Z,1.10
2019-02-08T07:15:05.042Z,1.10
2019-02-08T07:18:17.827Z,1.10
2019-02-08T07:21:26.434Z,1.10
2019-02-08T07:24:35.263Z,1.10
2019-02-08T07:27:42.145Z,1.10
2019-02-08T07:30:49.007Z,1.10
2019-02-08T07:33:57.838Z,1.10
2019-02-08T07:39:09.808Z,1.10
2019-02-08T07:42:16.733Z,1.10
2019-02-08T07:45:23.584Z,1.10
2019-02-08T07:48:33.364Z,1.20
2019-02-08T07:51:48.231Z,1.20
2019-02-08T07:55:01.054Z,1.30
2019-02-08T07:58:09.136Z,1.30
2019-02-08T08:01:17.135Z,1.30
2019-02-08T08:04:28.828Z,1.30
2019-02-08T08:07:35.723Z,1.40
2019-02-08T08:10:42.579Z,1.40
2019-02-08T08:14:06.375Z,1.40
2019-02-08T08:17:14.289Z,1.50
2019-02-08T08:20:27.079Z,1.50
2019-02-08T08:23:34.967Z,1.50
2019-02-08T08:26:42.811Z,1.50
2019-02-08T08:29:50.392Z,1.60
2019-02-08T08:33:05.372Z,1.60
2019-02-08T08:36:20.423Z,1.70
2019-02-08T08:39:51.861Z,1.70
2019-02-08T08:43:06.436Z,1.70
2019-02-08T08:48:35.711Z,1.80
2019-02-08T08:52:00.138Z,1.80
2019-02-08T08:55:17.300Z,1.80
2019-02-08T08:58:36.054Z,1.90
2019-02-08T09:01:52.635Z,2.00
2019-02-08T09:05:06.132Z,2.00
2019-02-08T09:10:22.671Z,2.10
2019-02-08T09:13:45.588Z,2.10
2019-02-08T09:17:01.589Z,2.20
2019-02-08T09:20:16.541Z,2.30
2019-02-08T09:23:33.013Z,2.30
2019-02-08T09:26:50.251Z,2.40
2019-02-08T09:30:20.747Z,2.40
2019-02-08T09:33:40.106Z,2.50
2019-02-08T09:36:55.650Z,2.60
2019-02-08T09:40:21.783Z,2.60
2019-02-08T09:43:39.059Z,2.70
2019-02-08T09:47:30.165Z,2.70
2019-02-08T09:50:43.792Z,2.80
2019-02-08T09:53:56.830Z,2.80
2019-02-08T09:57:13.406Z,2.90
2019-02-08T10:00:29.710Z,2.90
2019-02-08T10:03:45.347Z,2.90
2019-02-08T10:07:03.781Z,2.90
2019-02-08T10:10:16.331Z,2.90
2019-02-08T10:13:29.950Z,3.00
2019-02-08T10:16:47.367Z,3.00
2019-02-08T10:22:08.737Z,3.10
2019-02-08T10:25:22.340Z,3.10
2019-02-08T10:28:35.844Z,3.20
2019-02-08T10:31:52.356Z,3.20
2019-02-08T10:35:06.332Z,3.20
2019-02-08T10:40:23.663Z,3.30
2019-02-08T10:43:39.150Z,3.30
2019-02-08T10:46:54.396Z,3.30
2019-02-08T10:52:10.996Z,3.30
2019-02-08T10:55:25.220Z,3.40
2019-02-08T10:58:38.911Z,3.40
2019-02-08T11:03:58.175Z,3.40
2019-02-08T11:07:11.852Z,3.50
2019-02-08T11:10:40.075Z,3.60
2019-02-08T11:14:24.360Z,3.60
2019-02-08T11:19:33.794Z,3.70
2019-02-08T11:22:36.135Z,3.70
2019-02-08T11:25:38.431Z,3.70
2019-02-08T11:28:40.713Z,3.70
2019-02-08T11:31:42.972Z,3.70
2019-02-08T11:34:45.323Z,3.70
2019-02-08T11:37:47.615Z,3.80
2019-02-08T11:40:49.859Z,3.80
2019-02-08T11:43:52.162Z,3.80
2019-02-08T11:46:54.442Z,3.80
2019-02-08T11:51:21.271Z,3.80
2019-02-08T11:54:23.611Z,3.80
2019-02-08T11:57:25.855Z,3.80
2019-02-08T12:00:33.853Z,3.80
2019-02-08T12:03:36.097Z,3.90
2019-02-08T12:06:38.372Z,3.90
2019-02-08T12:09:40.661Z,3.90
2019-02-08T12:12:43.026Z,3.90
2019-02-08T12:15:45.284Z,4.00
2019-02-08T12:18:47.527Z,4.00
2019-02-08T12:21:50.481Z,4.10
2019-02-08T12:26:17.325Z,4.10
2019-02-08T12:29:19.621Z,4.10
2019-02-08T12:32:21.887Z,4.10
2019-02-08T12:35:24.155Z,4.10
2019-02-08T12:38:26.383Z,4.10
2019-02-08T12:41:28.611Z,4.10
2019-02-08T12:44:30.880Z,4.10
2019-02-08T12:47:33.127Z,4.20
2019-02-08T12:50:35.434Z,4.20
2019-02-08T12:53:37.697Z,4.20
2019-02-08T12:56:45.469Z,4.20
2019-02-08T12:59:42.219Z,4.10
2019-02-08T13:02:44.553Z,4.10
2019-02-08T13:05:46.818Z,4.10
2019-02-08T13:08:49.139Z,4.10
2019-02-08T13:11:51.414Z,4.10
2019-02-08T13:14:53.707Z,4.10
2019-02-08T13:17:56.000Z,4.10
2019-02-08T13:20:58.283Z,4.10
2019-02-08T13:24:00.555Z,4.10
2019-02-08T13:27:02.863Z,4.10
2019-02-08T13:30:09.618Z,4.10
2019-02-08T13:33:11.886Z,4.10
2019-02-08T13:36:14.390Z,4.10
2019-02-08T13:39:16.650Z,4.10
2019-02-08T13:42:18.895Z,4.10
2019-02-08T13:45:21.171Z,4.10
2019-02-08T13:48:23.467Z,4.10
2019-02-08T13:51:25.788Z,4.10
2019-02-08T13:54:28.135Z,4.00
2019-02-08T13:57:30.385Z,4.00
2019-02-08T14:00:34.085Z,4.00
2019-02-08T14:03:36.356Z,4.00
2019-02-08T14:06:38.624Z,4.00
2019-02-08T14:09:40.917Z,4.10
2019-02-08T14:12:43.226Z,4.10
2019-02-08T14:15:45.529Z,4.20
2019-02-08T14:18:47.817Z,4.10
2019-02-08T14:21:50.075Z,4.10
2019-02-08T14:24:52.345Z,4.10
2019-02-08T14:27:54.627Z,4.00
2019-02-08T14:30:56.916Z,4.00
2019-02-08T14:33:59.234Z,4.00
2019-02-08T14:37:01.486Z,4.00
2019-02-08T14:40:05.312Z,4.00
2019-02-08T14:43:07.626Z,4.00
2019-02-08T14:46:09.965Z,4.00
2019-02-08T14:49:12.261Z,4.00
2019-02-08T14:52:14.535Z,4.00
2019-02-08T14:55:16.869Z,4.10
2019-02-08T14:58:19.136Z,4.20
2019-02-08T15:01:21.458Z,4.30
2019-02-08T15:04:23.725Z,4.30
2019-02-08T15:07:26.044Z,4.40
2019-02-08T15:10:30.732Z,4.40
2019-02-08T15:13:32.995Z,4.40
2019-02-08T15:16:35.244Z,4.40
2019-02-08T15:19:37.510Z,4.40
2019-02-08T15:22:39.793Z,4.40
2019-02-08T15:25:42.122Z,4.40
2019-02-08T15:28:44.381Z,4.50
2019-02-08T15:31:46.632Z,4.60
2019-02-08T15:34:48.899Z,4.70
2019-02-08T15:37:51.150Z,4.70
2019-02-08T15:40:54.734Z,4.70
2019-02-08T15:43:57.012Z,4.60
2019-02-08T15:46:59.258Z,4.50
2019-02-08T15:50:01.587Z,4.40
2019-02-08T15:53:03.916Z,4.30
2019-02-08T15:56:09.467Z,4.20
2019-02-08T15:59:11.767Z,4.30
2019-02-08T16:02:14.076Z,4.40
2019-02-08T16:05:16.564Z,4.50
2019-02-08T16:08:18.851Z,4.80
2019-02-08T16:11:21.228Z,5.00
2019-02-08T16:14:23.492Z,5.00
2019-02-08T16:17:25.723Z,4.90
2019-02-08T16:20:28.097Z,4.80
2019-02-08T16:23:30.429Z,4.80
2019-02-08T16:26:32.721Z,4.80
2019-02-08T16:29:35.011Z,4.80
2019-02-08T16:32:37.252Z,4.70
2019-02-08T16:35:39.561Z,4.70
2019-02-08T16:38:41.822Z,4.70
2019-02-08T16:41:44.071Z,4.60
2019-02-08T16:44:46.349Z,4.60
2019-02-08T16:47:48.725Z,4.60
2019-02-08T16:50:51.064Z,4.50
2019-02-08T16:53:53.863Z,4.50
2019-02-08T16:56:55.683Z,4.50
2019-02-08T16:59:57.928Z,4.50
2019-02-08T17:03:01.503Z,4.50
2019-02-08T17:06:03.919Z,4.50
2019-02-08T17:09:10.112Z,4.50
2019-02-08T17:12:12.334Z,4.50
2019-02-08T17:15:17.166Z,4.40
2019-02-08T17:18:19.524Z,4.40
2019-02-08T17:21:21.755Z,4.30
2019-02-08T17:24:24.034Z,4.30
2019-02-08T17:27:26.320Z,4.20
2019-02-08T17:30:28.601Z,4.20
2019-02-08T17:33:30.850Z,4.20
2019-02-08T17:36:33.210Z,4.10
2019-02-08T17:39:35.483Z,4.10
2019-02-08T17:42:37.719Z,4.10
2019-02-08T17:45:40.024Z,4.10
2019-02-08T17:48:42.345Z,4.00
2019-02-08T17:51:44.615Z,4.00
2019-02-08T17:54:46.960Z,4.00
2019-02-08T17:57:49.310Z,4.00
2019-02-08T18:00:53.439Z,3.90
2019-02-08T18:03:55.691Z,3.90
2019-02-08T18:06:57.934Z,3.90
2019-02-08T18:10:00.234Z,3.80
2019-02-08T18:13:03.524Z,3.70
2019-02-08T18:16:04.802Z,3.70
2019-02-08T18:19:07.030Z,3.60
2019-02-08T18:22:09.362Z,3.50
2019-02-08T18:25:11.662Z,3.50
2019-02-08T18:28:13.952Z,3.50
2019-02-08T18:31:16.448Z,3.50
2019-02-08T18:34:18.699Z,3.50
2019-02-08T18:37:20.953Z,3.40
2019-02-08T18:40:23.240Z,3.40
2019-02-08T18:43:25.520Z,3.40
2019-02-08T18:46:27.817Z,3.40
2019-02-08T18:49:30.129Z,3.30
2019-02-08T18:52:32.380Z,3.30
2019-02-08T18:55:34.707Z,3.30
2019-02-08T18:58:37.007Z,3.30
2019-02-08T19:01:39.293Z,3.20
2019-02-08T19:04:41.555Z,3.20
2019-02-08T19:07:43.795Z,3.10
2019-02-08T19:10:46.099Z,3.10
2019-02-08T19:13:48.351Z,3.20
2019-02-08T19:16:50.638Z,3.10
2019-02-08T19:19:52.928Z,3.10
2019-02-08T19:22:55.215Z,3.10
2019-02-08T19:25:57.438Z,3.00
2019-02-08T19:28:59.682Z,3.00
2019-02-08T19:32:01.960Z,3.00
2019-02-08T19:35:05.511Z,3.00
2019-02-08T19:38:07.810Z,2.90
2019-02-08T19:41:10.145Z,2.90
2019-02-08T19:44:12.452Z,2.90
2019-02-08T19:47:14.720Z,2.90
2019-02-08T19:50:20.131Z,2.90
2019-02-08T19:53:22.399Z,2.80
2019-02-08T19:56:24.683Z,2.80
2019-02-08T19:59:26.935Z,2.80
2019-02-08T20:02:29.170Z,2.80
2019-02-08T20:05:31.444Z,2.70
2019-02-08T20:08:33.692Z,2.80
2019-02-08T20:11:35.923Z,2.80
2019-02-08T20:14:38.186Z,2.70
2019-02-08T20:17:40.565Z,2.80
2019-02-08T20:20:42.850Z,2.70
2019-02-08T20:23:45.147Z,2.70
2019-02-08T20:26:47.542Z,2.70
2019-02-08T20:29:49.812Z,2.70
2019-02-08T20:32:52.163Z,2.70
2019-02-08T20:35:54.392Z,2.60
2019-02-08T20:38:56.670Z,2.60
2019-02-08T20:41:58.949Z,2.60
2019-02-08T20:45:01.328Z,2.60
2019-02-08T20:48:07.014Z,2.60
2019-02-08T20:51:09.340Z,2.60
2019-02-08T20:54:11.655Z,2.60
2019-02-08T20:57:13.903Z,2.60
2019-02-08T21:00:21.459Z,2.50
2019-02-08T21:03:23.750Z,2.50
2019-02-08T21:06:26.029Z,2.40
2019-02-08T21:09:28.272Z,2.40
2019-02-08T21:12:30.563Z,2.40
2019-02-08T21:15:32.914Z,2.40
2019-02-08T21:18:35.319Z,2.30
2019-02-08T21:21:37.726Z,2.30
2019-02-08T21:24:40.027Z,2.30
2019-02-08T21:27:42.344Z,2.30
2019-02-08T21:30:44.695Z,2.30
2019-02-08T21:33:46.983Z,2.30
2019-02-08T21:36:49.383Z,2.20
2019-02-08T21:39:51.808Z,2.20
2019-02-08T21:42:54.140Z,2.20
2019-02-08T21:45:56.511Z,2.20
2019-02-08T21:48:58.752Z,2.20
2019-02-08T21:52:00.987Z,2.20
2019-02-08T21:55:03.543Z,2.10
2019-02-08T21:58:06.125Z,2.10
2019-02-08T22:02:32.966Z,2.10
2019-02-08T22:05:37.994Z,2.10
2019-02-08T22:08:40.323Z,2.00
2019-02-08T22:11:42.629Z,2.00
2019-02-08T22:14:44.908Z,2.00
2019-02-08T22:17:47.135Z,2.00
2019-02-08T22:20:49.432Z,2.00
2019-02-08T22:23:51.793Z,2.10
2019-02-08T22:26:54.116Z,2.10
2019-02-08T22:29:56.444Z,2.10
2019-02-08T22:32:58.809Z,2.10
2019-02-08T22:36:01.079Z,2.20
2019-02-08T22:39:06.432Z,2.20
2019-02-08T22:42:08.758Z,2.20
2019-02-08T22:45:15.669Z,2.20
2019-02-08T22:48:17.944Z,2.20
2019-02-08T22:51:20.216Z,2.20
2019-02-08T22:54:22.503Z,2.30
2019-02-08T22:57:24.835Z,2.30
2019-02-08T23:00:38.619Z,2.30
2019-02-08T23:03:40.926Z,2.30
2019-02-08T23:06:45.023Z,2.30
2019-02-08T23:09:45.543Z,2.30
2019-02-08T23:12:47.871Z,2.30
2019-02-08T23:15:50.170Z,2.30
2019-02-08T23:18:52.422Z,2.20
2019-02-08T23:21:55.302Z,2.20
2019-02-08T23:24:57.012Z,2.10
2019-02-08T23:27:59.319Z,2.20
2019-02-08T23:31:01.654Z,2.10
2019-02-08T23:34:03.955Z,2.10
2019-02-08T23:37:06.274Z,2.10
2019-02-08T23:40:08.595Z,2.00
2019-02-08T23:43:10.883Z,2.00
2019-02-08T23:46:13.188Z,2.00
2019-02-08T23:49:15.435Z,2.00
2019-02-08T23:52:17.738Z,2.00
2019-02-08T23:55:20.065Z,2.00
2019-02-08T23:58:22.358Z,1.90
